Time;durP1;ratioP1;P1;durP2;ratioP2;P2;SDS_P1;SDS_P2;PMS_P1;PMS_P2;Temp;Humidity;BMP_temperature;BMP_pressure;BME280_temperature;BME280_humidity;BME280_pressure;Samples;Min_cycle;Max_cycle;Signal;HPM_P1;HPM_P2
2022/07/12 00:00:55;;;;;;;4.87;3.23;;;;;;;13.43;100.00;62235.56;5074896;28;20203;-76
2022/07/12 00:03:23;;;;;;;5.50;3.50;;;;;;;13.46;100.00;62238.78;5073310;28;20200;-77
2022/07/12 00:05:50;;;;;;;5.93;3.40;;;;;;;13.53;100.00;62243.75;5072973;28;20196;-76
2022/07/12 00:08:17;;;;;;;5.70;3.60;;;;;;;13.39;100.00;62234.34;5073010;28;20231;-77
2022/07/12 00:10:45;;;;;;;10.20;3.57;;;;;;;13.30;100.00;62224.16;5073186;28;20199;-76
2022/07/12 00:13:13;;;;;;;7.87;4.20;;;;;;;13.18;100.00;62208.72;5072539;28;20538;-77
2022/07/12 00:15:40;;;;;;;6.00;3.60;;;;;;;13.13;100.00;62211.00;5073079;28;20227;-76
2022/07/12 00:18:08;;;;;;;3.73;3.43;;;;;;;13.03;100.00;62197.69;5072708;28;20208;-75
2022/07/12 00:20:35;;;;;;;4.03;3.63;;;;;;;13.02;100.00;62194.06;5071840;28;20273;-76
2022/07/12 00:23:03;;;;;;;12.70;3.83;;;;;;;13.15;100.00;62205.47;5072652;28;20585;-78
2022/07/12 00:25:30;;;;;;;5.43;4.53;;;;;;;13.05;100.00;62197.84;5071990;28;20710;-79
2022/07/12 00:27:57;;;;;;;6.93;4.10;;;;;;;13.21;100.00;62217.03;5072107;28;20227;-77
2022/07/12 00:30:26;;;;;;;7.57;4.00;;;;;;;13.25;100.00;62216.22;5071314;28;20196;-77
2022/07/12 00:32:53;;;;;;;6.50;4.00;;;;;;;13.20;100.00;62211.38;5072076;28;20211;-77
2022/07/12 00:35:20;;;;;;;5.50;4.17;;;;;;;12.51;100.00;62144.94;5072349;28;20207;-77
2022/07/12 00:37:47;;;;;;;6.30;4.30;;;;;;;13.00;100.00;62189.34;5071431;28;20200;-76
2022/07/12 00:40:14;;;;;;;12.90;4.40;;;;;;;13.04;100.00;62196.75;5067945;28;20204;-77
2022/07/12 00:42:41;;;;;;;6.37;4.40;;;;;;;13.03;100.00;62195.13;5063601;28;20291;-76
2022/07/12 00:45:09;;;;;;;6.20;4.10;;;;;;;13.02;100.00;62196.63;5071912;28;20196;-77
2022/07/12 00:47:40;;;;;;;7.00;4.80;;;;;;;13.02;100.00;62197.16;5072123;28;20200;-76
2022/07/12 00:50:09;;;;;;;8.63;5.60;;;;;;;12.62;100.00;62154.19;5072885;28;20291;-76
2022/07/12 00:52:39;;;;;;;11.47;5.83;;;;;;;13.02;100.00;62188.94;5072270;28;20244;-76
2022/07/12 00:55:07;;;;;;;7.50;5.60;;;;;;;12.85;100.00;62173.25;5071603;28;20200;-77
2022/07/12 00:57:35;;;;;;;14.63;5.93;;;;;;;12.82;100.00;62175.16;5072132;28;20220;-78
2022/07/12 01:00:04;;;;;;;15.90;6.87;;;;;;;12.64;100.00;62151.78;5071983;28;20251;-77
2022/07/12 01:02:32;;;;;;;12.97;6.13;;;;;;;12.73;100.00;62166.56;5071907;28;20197;-78
2022/07/12 01:05:02;;;;;;;6.77;5.10;;;;;;;12.79;100.00;62166.81;5072136;28;20211;-75
2022/07/12 01:07:29;;;;;;;8.00;5.30;;;;;;;12.66;100.00;62158.50;5072284;28;20617;-75
2022/07/12 01:09:57;;;;;;;6.57;4.83;;;;;;;12.86;100.00;62179.97;5071985;28;20569;-77
2022/07/12 01:12:26;;;;;;;7.83;5.00;;;;;;;12.88;100.00;62179.03;5071935;28;20246;-78
2022/07/12 01:14:54;;;;;;;7.40;4.93;;;;;;;12.70;100.00;62163.31;5072075;28;20216;-76
2022/07/12 01:17:22;;;;;;;5.83;4.77;;;;;;;12.68;100.00;62161.19;5071834;28;20204;-76
2022/07/12 01:19:50;;;;;;;6.83;4.37;;;;;;;12.70;100.00;62157.66;5071585;28;20199;-76
2022/07/12 01:22:20;;;;;;;4.50;4.10;;;;;;;12.50;100.00;62134.19;5071874;28;20287;-79
2022/07/12 01:24:48;;;;;;;7.53;4.80;;;;;;;12.46;100.00;62137.56;5071172;28;20208;-76
2022/07/12 01:27:16;;;;;;;7.10;3.80;;;;;;;12.26;100.00;62116.09;5071670;28;20313;-76
2022/07/12 01:29:43;;;;;;;6.83;4.10;;;;;;;11.94;100.00;62076.13;5071099;28;20285;-76
2022/07/12 01:32:26;;;;;;;9.17;4.13;;;;;;;12.42;100.00;62133.25;5071765;28;20271;-76
2022/07/12 01:34:54;;;;;;;9.20;4.20;;;;;;;12.44;100.00;62130.31;5058675;28;20196;-75
2022/07/12 01:37:24;;;;;;;5.43;4.50;;;;;;;12.35;100.00;62125.22;5071265;28;20211;-77
2022/07/12 01:39:55;;;;;;;6.47;4.43;;;;;;;12.28;100.00;62108.03;5071018;28;20207;-76
2022/07/12 01:42:22;;;;;;;5.43;4.50;;;;;;;11.73;100.00;62056.69;5071276;28;20208;-77
2022/07/12 01:44:50;;;;;;;6.27;4.63;;;;;;;12.28;100.00;62110.56;5071017;28;20204;-75
2022/07/12 01:47:18;;;;;;;9.20;4.87;;;;;;;11.91;100.00;62073.44;5071318;28;20258;-78
2022/07/12 01:49:46;;;;;;;6.83;5.27;;;;;;;12.06;100.00;62094.09;5083561;28;20232;-79
2022/07/12 01:52:13;;;;;;;8.80;5.00;;;;;;;11.98;100.00;62080.94;5067556;28;20205;-77
2022/07/12 01:54:42;;;;;;;8.03;5.17;;;;;;;12.07;100.00;62092.63;5053502;28;20259;-77
2022/07/12 01:57:10;;;;;;;9.00;5.00;;;;;;;12.07;100.00;62093.16;5071393;28;20208;-77
2022/07/12 01:59:37;;;;;;;10.57;5.17;;;;;;;11.57;100.00;62036.97;5070640;28;20211;-78
2022/07/12 02:02:05;;;;;;;6.67;4.97;;;;;;;11.72;100.00;62050.50;5072212;28;20242;-77
2022/07/12 02:04:31;;;;;;;5.00;4.53;;;;;;;12.13;100.00;62097.03;5070980;28;20674;-77
2022/07/12 02:06:58;;;;;;;8.47;4.80;;;;;;;11.75;100.00;62056.28;5071148;28;20257;-76
2022/07/12 02:09:25;;;;;;;5.00;4.23;;;;;;;12.17;100.00;62096.22;5070685;28;20732;-76
2022/07/12 02:11:52;;;;;;;11.20;4.60;;;;;;;12.24;100.00;62106.28;5070874;28;20208;-76
2022/07/12 02:14:20;;;;;;;5.17;4.10;;;;;;;12.07;100.00;62093.16;5070594;28;20239;-78
2022/07/12 02:16:48;;;;;;;7.33;4.17;;;;;;;11.94;100.00;62076.66;5071218;28;20200;-78
2022/07/12 02:19:15;;;;;;;10.90;4.67;;;;;;;12.06;100.00;62089.53;5070756;28;20250;-77
2022/07/12 02:21:42;;;;;;;9.13;4.77;;;;;;;12.09;100.00;62095.31;5070678;28;20208;-76
2022/07/12 02:24:09;;;;;;;10.67;4.70;;;;;;;11.83;100.00;62069.97;5070645;28;20580;-77
2022/07/12 02:26:37;;;;;;;10.27;4.50;;;;;;;12.04;100.00;62092.50;5071217;28;20635;-76
2022/07/12 02:29:06;;;;;;;4.83;4.17;;;;;;;11.55;100.00;62035.34;5070832;28;20318;-77
2022/07/12 02:31:35;;;;;;;6.90;4.50;;;;;;;11.89;100.00;62071.31;5047995;28;20220;-77
2022/07/12 02:34:02;;;;;;;7.27;4.10;;;;;;;11.84;100.00;62071.03;5066720;28;20208;-76
2022/07/12 02:36:28;;;;;;;6.10;4.23;;;;;;;11.69;100.00;62052.41;5071633;28;20196;-78
2022/07/12 02:38:56;;;;;;;6.70;4.33;;;;;;;11.69;100.00;62049.84;5071846;28;20212;-77
2022/07/12 02:41:23;;;;;;;5.63;4.47;;;;;;;10.82;100.00;61962.72;5070755;28;20200;-78
2022/07/12 02:43:49;;;;;;;8.20;4.43;;;;;;;11.66;100.00;62047.16;5071431;28;20235;-76
2022/07/12 02:46:16;;;;;;;15.00;5.20;;;;;;;11.68;100.00;62051.31;5064838;28;20211;-77
2022/07/12 02:48:45;;;;;;;13.60;4.87;;;;;;;11.77;100.00;62061.50;5083486;28;20235;-77
2022/07/12 02:51:12;;;;;;;12.50;4.90;;;;;;;11.75;100.00;62056.28;5082453;28;20205;-76
2022/07/12 02:53:39;;;;;;;11.27;4.43;;;;;;;11.82;100.00;62066.34;5074796;28;20212;-76
2022/07/12 02:56:06;;;;;;;5.37;4.53;;;;;;;11.71;100.00;62052.50;5086536;28;20265;-75
2022/07/12 02:58:35;;;;;;;6.90;5.07;;;;;;;11.72;100.00;62055.59;5071143;28;20216;-75
2022/07/12 03:01:02;;;;;;;8.07;5.47;;;;;;;11.44;100.00;62028.66;5067564;28;20215;-77
2022/07/12 03:03:29;;;;;;;11.90;5.00;;;;;;;11.14;100.00;61990.84;5074466;28;20196;-76
2022/07/12 03:05:58;;;;;;;6.33;4.73;;;;;;;11.82;100.00;62071.44;5074975;28;20212;-77
2022/07/12 03:08:25;;;;;;;8.13;5.00;;;;;;;11.91;100.00;62078.56;5074410;28;20200;-78
2022/07/12 03:10:52;;;;;;;7.33;5.53;;;;;;;11.76;100.00;62062.44;5074479;28;20258;-76
2022/07/12 03:13:19;;;;;;;12.37;5.60;;;;;;;11.75;100.00;62056.28;5057724;28;20223;-77
2022/07/12 03:15:46;;;;;;;7.63;5.53;;;;;;;11.87;100.00;62071.72;5064013;28;20601;-78
2022/07/12 03:18:14;;;;;;;17.33;5.80;;;;;;;11.94;100.00;62076.66;5073703;28;20655;-77
2022/07/12 03:20:41;;;;;;;14.93;5.70;;;;;;;11.41;100.00;62014.69;5073239;28;20204;-76
2022/07/12 03:23:10;;;;;;;13.27;5.30;;;;;;;11.73;100.00;62059.75;5073690;28;20196;-76
2022/07/12 03:25:37;;;;;;;15.47;6.13;;;;;;;11.31;100.00;62021.84;5073826;28;20232;-78
2022/07/12 03:28:04;;;;;;;13.40;5.70;;;;;;;12.00;100.00;62085.09;5073863;28;20192;-79
2022/07/12 03:30:32;;;;;;;11.97;5.87;;;;;;;12.00;100.00;62083.09;5068669;28;20228;-76
2022/07/12 03:32:59;;;;;;;15.57;5.47;;;;;;;11.97;100.00;62085.00;5065201;28;20310;-78
2022/07/12 03:35:26;;;;;;;11.37;5.80;;;;;;;12.05;100.00;62085.91;5073508;28;20200;-76
2022/07/12 03:37:54;;;;;;;19.23;6.37;;;;;;;12.14;100.00;62105.78;5073981;28;20208;-76
2022/07/12 03:40:23;;;;;;;17.60;6.80;;;;;;;11.85;100.00;62061.91;5073017;28;20257;-77
2022/07/12 03:42:50;;;;;;;12.77;5.87;;;;;;;11.72;100.00;62053.06;5073252;28;20589;-76
2022/07/12 03:45:18;;;;;;;8.97;5.63;;;;;;;12.29;100.00;62119.31;5073062;28;20207;-77
2022/07/12 03:47:46;;;;;;;11.67;5.70;;;;;;;12.42;100.00;62130.16;5072862;28;20697;-77
2022/07/12 03:50:15;;;;;;;13.60;5.47;;;;;;;11.99;100.00;62081.50;5073255;28;20224;-75
2022/07/12 03:52:45;;;;;;;7.63;4.97;;;;;;;12.59;100.00;62146.41;5080484;28;20206;-75
2022/07/12 03:55:13;;;;;;;9.43;5.00;;;;;;;12.66;100.00;62153.38;5075271;28;20231;-77
2022/07/12 03:57:42;;;;;;;6.07;4.87;;;;;;;12.71;100.00;62159.28;5060479;28;20238;-77
2022/07/12 04:00:12;;;;;;;8.10;5.00;;;;;;;12.73;100.00;62161.44;5073337;28;20204;-77
2022/07/12 04:02:40;;;;;;;4.00;3.60;;;;;;;12.71;100.00;62166.97;5072834;28;20355;-76
2022/07/12 04:05:09;;;;;;;7.87;3.73;;;;;;;13.01;100.00;62190.97;5072514;28;20204;-77
2022/07/12 04:07:36;;;;;;;8.70;4.20;;;;;;;13.24;100.00;62220.28;5072916;28;20211;-77
2022/07/12 04:10:03;;;;;;;4.83;3.57;;;;;;;13.23;100.00;62214.63;5072927;28;20232;-77
2022/07/12 04:12:30;;;;;;;7.13;4.00;;;;;;;13.30;100.00;62221.59;5072049;28;20234;-76
2022/07/12 04:14:59;;;;;;;10.77;3.63;;;;;;;12.47;100.00;62138.66;5072642;28;20220;-76
2022/07/12 04:17:26;;;;;;;8.47;4.23;;;;;;;13.23;100.00;62216.63;5054994;28;20201;-78
2022/07/12 04:19:53;;;;;;;7.23;3.97;;;;;;;13.51;100.00;62244.16;5072240;28;20215;-76
2022/07/12 04:22:21;;;;;;;9.50;3.93;;;;;;;13.73;100.00;62269.81;5072809;28;20200;-77
2022/07/12 04:24:47;;;;;;;5.33;4.40;;;;;;;13.76;100.00;62271.03;5072734;28;20212;-75
2022/07/12 04:27:14;;;;;;;7.73;4.87;;;;;;;13.27;100.00;62218.38;5072719;28;20361;-76
2022/07/12 04:29:42;;;;;;;11.43;5.07;;;;;;;13.97;100.00;62296.16;5072309;28;20235;-77
2022/07/12 04:32:11;;;;;;;8.50;4.80;;;;;;;14.05;100.00;62302.19;5072651;28;20209;-76
2022/07/12 04:34:38;;;;;;;6.23;4.20;;;;;;;14.14;100.00;62309.31;5072656;28;20204;-76
2022/07/12 04:37:06;;;;;;;9.30;4.30;;;;;;;14.03;100.00;62299.50;5071836;28;20683;-78
2022/07/12 04:39:33;;;;;;;6.03;4.13;;;;;;;14.18;100.00;62316.16;5060299;28;20213;-76
2022/07/12 04:42:01;;;;;;;6.73;4.50;;;;;;;13.55;100.00;62254.09;5072054;28;20207;-76
2022/07/12 04:44:28;;;;;;;5.87;4.20;;;;;;;14.44;100.00;62345.63;5072205;28;20592;-76
2022/07/12 04:46:55;;;;;;;5.20;3.77;;;;;;;14.23;100.00;62321.53;5072678;28;20245;-77
2022/07/12 04:49:23;;;;;;;4.47;3.77;;;;;;;14.63;100.00;62368.63;5071677;28;20242;-76
2022/07/12 04:51:50;;;;;;;4.60;3.23;;;;;;;14.21;100.00;62326.53;5072313;28;20207;-78
2022/07/12 04:54:17;;;;;;;4.67;3.53;;;;;;;14.85;100.00;62384.59;5071802;28;20658;-77
2022/07/12 04:56:44;;;;;;;9.80;4.00;;;;;;;14.67;100.00;62370.38;5066359;28;20204;-77
2022/07/12 04:59:14;;;;;;;6.30;3.90;;;;;;;14.69;100.00;62369.97;5065075;28;20208;-78
2022/07/12 05:01:40;;;;;;;6.87;4.07;;;;;;;14.82;100.00;62389.06;5058608;28;20208;-76
2022/07/12 05:04:07;;;;;;;5.73;3.67;;;;;;;15.07;100.00;62415.97;5071746;28;20654;-76
2022/07/12 05:06:36;;;;;;;7.47;3.33;;;;;;;14.95;100.00;62403.06;5071806;28;20215;-78
2022/07/12 05:09:03;;;;;;;7.20;3.57;;;;;;;15.13;100.00;62422.44;5071330;28;20208;-77
2022/07/12 05:11:32;;;;;;;7.63;4.00;;;;;;;15.18;100.00;62425.22;5072043;28;20226;-77
2022/07/12 05:13:59;;;;;;;5.13;3.63;;;;;;;15.35;100.00;62440.97;5071449;28;20285;-77
2022/07/12 05:16:27;;;;;;;7.20;3.97;;;;;;;15.61;100.00;62468.97;5068263;28;20201;-76
2022/07/12 05:18:54;;;;;;;11.97;4.00;;;;;;;15.62;100.00;62469.50;5065181;28;20593;-75
2022/07/12 05:21:23;;;;;;;7.13;3.90;;;;;;;15.69;100.00;62479.63;5077860;28;20197;-76
2022/07/12 05:23:52;;;;;;;10.17;4.00;;;;;;;15.53;100.00;62465.50;5071554;28;20200;-77
2022/07/12 05:26:21;;;;;;;7.67;3.50;;;;;;;15.94;100.00;62507.06;5060571;28;20858;-77
2022/07/12 05:28:47;;;;;;;7.17;4.10;;;;;;;16.00;100.00;62513.53;5069479;28;20204;-80
2022/07/12 05:31:14;;;;;;;10.43;3.90;;;;;;;16.24;100.00;62540.88;5071498;28;20235;-77
2022/07/12 05:33:41;;;;;;;7.03;3.97;;;;;;;16.43;100.00;62561.34;5071375;28;20200;-76
2022/07/12 05:36:08;;;;;;;7.07;3.67;;;;;;;16.08;100.00;62521.09;5071411;28;20254;-75
2022/07/12 05:38:36;;;;;;;10.33;3.90;;;;;;;16.29;100.00;62551.41;5071484;28;20215;-79
2022/07/12 05:41:04;;;;;;;11.43;3.67;;;;;;;16.25;100.00;62541.97;5071326;28;20207;-76
2022/07/12 05:43:31;;;;;;;6.07;3.80;;;;;;;16.19;100.00;62533.47;5071111;28;20192;-77
2022/07/12 05:45:59;;;;;;;4.10;3.37;;;;;;;15.72;100.00;62480.81;5071302;28;20216;-76
2022/07/12 05:48:26;;;;;;;5.30;3.83;;;;;;;16.64;100.00;62584.00;5059269;28;20266;-78
2022/07/12 05:50:53;;;;;;;6.93;4.17;;;;;;;17.12;100.00;62630.59;5055512;28;20315;-76
2022/07/12 05:53:22;;;;;;;11.27;4.07;;;;;;;17.20;100.00;62639.22;5053161;28;20204;-76
2022/07/12 05:55:49;;;;;;;5.97;3.47;;;;;;;17.36;100.00;62655.94;5073318;28;20204;-75
2022/07/12 05:58:18;;;;;;;5.80;3.53;;;;;;;17.86;100.00;62709.34;5077120;28;20205;-77
2022/07/12 06:00:46;;;;;;;5.83;3.30;;;;;;;17.69;100.00;62689.50;5070950;28;20232;-75
2022/07/12 06:03:13;;;;;;;10.47;3.90;;;;;;;17.64;100.00;62686.16;5070965;28;20287;-76
2022/07/12 06:05:40;;;;;;;7.97;3.27;;;;;;;17.85;100.00;62708.28;5070626;28;20192;-78
2022/07/12 06:08:08;;;;;;;10.10;3.67;;;;;;;18.41;100.00;62773.88;5071236;28;20200;-77
2022/07/12 06:10:35;;;;;;;5.97;3.43;;;;;;;17.91;100.00;62714.75;5071311;28;20659;-77
2022/07/12 06:13:04;;;;;;;4.97;3.50;;;;;;;18.42;100.00;62775.47;5057784;28;20600;-78
2022/07/12 06:15:33;;;;;;;10.00;3.47;;;;;;;18.76;100.00;62811.66;5071091;28;20253;-75
2022/07/12 06:18:00;;;;;;;5.37;3.63;;;;;;;18.96;100.00;62830.13;5075402;28;20199;-77
2022/07/12 06:20:27;;;;;;;6.73;3.70;;;;;;;19.15;100.00;62853.81;5074825;28;20214;-76
2022/07/12 06:22:54;;;;;;;9.47;3.23;;;;;;;19.37;100.00;62871.88;5071101;28;20193;-75
2022/07/12 06:25:22;;;;;;;18.43;3.87;;;;;;;19.63;100.00;62905.13;5071019;28;20291;-75
2022/07/12 06:27:50;;;;;;;11.10;4.17;;;;;;;19.64;100.00;62900.50;5072008;28;20325;-77
2022/07/12 06:30:18;;;;;;;8.40;4.37;;;;;;;19.55;100.00;62893.38;5074928;28;20247;-76
2022/07/12 06:32:47;;;;;;;9.77;3.90;;;;;;;19.63;100.00;62899.41;5074856;28;20223;-75
2022/07/12 06:35:15;;;;;;;7.73;3.60;;;;;;;19.89;100.00;62925.47;5074622;28;20667;-77
2022/07/12 06:37:42;;;;;;;6.83;3.53;;;;;;;19.43;100.00;62872.66;5074293;28;20679;-76
2022/07/12 06:40:16;;;;;;;5.17;3.30;;;;;;;20.15;100.00;62953.03;5074519;28;20204;-77
2022/07/12 06:42:44;;;;;;;7.07;3.97;;;;;;;20.15;100.00;62955.63;5074404;28;20209;-77
2022/07/12 06:45:11;;;;;;;16.73;3.83;;;;;;;20.17;100.00;62957.78;5074133;28;20200;-76
2022/07/12 06:47:40;;;;;;;7.53;3.63;;;;;;;20.15;100.00;62960.81;5074858;28;20200;-76
2022/07/12 06:50:09;;;;;;;7.20;3.63;;;;;;;20.10;100.00;62950.75;5073898;28;20223;-78
2022/07/12 06:52:36;;;;;;;11.07;3.67;;;;;;;20.27;100.00;62971.22;5074340;28;20201;-76
2022/07/12 06:55:03;;;;;;;7.07;3.40;;;;;;;20.26;100.00;62967.56;5074171;28;20204;-77
2022/07/12 06:57:30;;;;;;;8.93;3.37;;;;;;;20.71;100.00;63016.22;5074134;28;20207;-76
2022/07/12 06:59:58;;;;;;;7.03;2.90;;;;;;;20.85;100.00;63031.34;5074032;28;20639;-77
2022/07/12 07:02:25;;;;;;;12.03;3.87;;;;;;;21.09;100.00;63061.44;5078675;28;20193;-76
2022/07/12 07:04:54;;;;;;;12.57;4.23;;;;;;;21.59;100.00;63110.38;5064853;28;20201;-76
2022/07/12 07:07:23;;;;;;;5.70;2.50;;;;;;;21.45;100.00;63095.75;5074240;28;20690;-78
2022/07/12 07:09:49;;;;;;;8.63;2.97;;;;;;;21.68;100.00;63125.31;5073291;28;20302;-78
2022/07/12 07:12:17;;;;;;;11.67;3.17;;;;;;;21.41;100.00;63085.72;5073770;28;20279;-77
2022/07/12 07:14:43;;;;;;;12.23;3.20;;;;;;;21.92;100.00;63146.13;5073864;28;20270;-77
2022/07/12 07:17:11;;;;;;;11.63;2.60;;;;;;;21.77;100.00;63130.41;5074302;28;20216;-76
2022/07/12 07:19:38;;;;;;;6.70;2.50;;;;;;;21.76;100.00;63131.38;5073750;28;20413;-77
2022/07/12 07:22:05;;;;;;;4.70;2.20;;;;;;;21.85;100.00;63133.38;5073514;28;20212;-76
2022/07/12 07:24:33;;;;;;;7.77;2.23;;;;;;;22.32;100.00;63186.84;5073657;28;20206;-77
2022/07/12 07:27:00;;;;;;;7.37;2.20;;;;;;;22.17;100.00;63173.22;5074767;28;20298;-76
2022/07/12 07:32:11;;;;;;;3.57;1.80;;;;;;;22.16;100.00;63174.72;5064946;28;20207;-76
2022/07/12 07:34:38;;;;;;;5.63;2.23;;;;;;;21.63;100.00;63112.13;5069342;28;20667;-78
2022/07/12 07:37:06;;;;;;;9.80;1.80;;;;;;;21.90;100.00;63143.97;5073462;28;20218;-78
2022/07/12 07:39:36;;;;;;;5.33;2.03;;;;;;;21.31;100.00;63074.91;5073520;28;20211;-78
2022/07/12 07:42:04;;;;;;;4.03;2.07;;;;;;;22.15;100.00;63167.91;5059390;28;20247;-78
2022/07/12 07:44:31;;;;;;;5.13;2.30;;;;;;;22.44;100.00;63197.25;5073692;28;20204;-76
2022/07/12 07:46:57;;;;;;;5.47;1.70;;;;;;;22.35;100.00;63192.72;5072909;28;20663;-78
2022/07/12 07:49:24;;;;;;;6.03;1.57;;;;;;;22.07;100.00;63164.44;5073340;28;20204;-77
2022/07/12 07:51:52;;;;;;;6.40;2.10;;;;;;;22.25;100.00;63181.34;5073104;28;20242;-76
2022/07/12 07:54:19;;;;;;;4.27;2.03;;;;;;;22.87;100.00;63247.97;5073191;28;20595;-76
2022/07/12 07:56:48;;;;;;;8.80;2.10;;;;;;;23.28;100.00;63287.25;5073071;28;20283;-77
2022/07/12 07:59:15;;;;;;;3.60;1.60;;;;;;;23.07;100.00;63269.66;5073797;28;20204;-75
2022/07/12 08:01:46;;;;;;;3.03;1.63;;;;;;;22.22;100.00;63180.66;5077674;28;20200;-76
2022/07/12 08:04:13;;;;;;;4.30;1.63;;;;;;;22.99;100.00;63255.78;5073098;28;20200;-76
2022/07/12 08:06:41;;;;;;;12.53;1.70;;;;;;;23.12;100.00;63280.28;5072654;28;20200;-77
2022/07/12 08:09:08;;;;;;;7.43;2.07;;;;;;;23.19;100.00;63282.66;5073322;28;20211;-79
2022/07/12 08:11:35;;;;;;;6.03;2.73;;;;;;;22.67;100.00;63227.41;5072823;28;20683;-75
2022/07/12 08:14:05;;;;;;;4.67;1.60;;;;;;;22.63;100.00;63223.06;5072887;28;20311;-76
2022/07/12 08:16:32;;;;;;;4.57;1.60;;;;;;;22.62;100.00;63221.97;5072512;28;20227;-77
2022/07/12 08:18:59;;;;;;;3.00;1.70;;;;;;;23.00;100.00;63262.63;5072522;28;20211;-76
2022/07/12 08:21:26;;;;;;;16.97;2.47;;;;;;;22.93;100.00;63254.50;5072290;28;20196;-78
2022/07/12 08:23:54;;;;;;;6.40;1.83;;;;;;;21.15;100.00;63067.94;5072807;28;20204;-78
2022/07/12 08:26:22;;;;;;;6.53;1.77;;;;;;;22.98;100.00;63260.44;5073507;28;20235;-77
2022/07/12 08:28:49;;;;;;;6.70;2.03;;;;;;;23.39;100.00;63304.94;5055320;28;20283;-77
2022/07/12 08:31:18;;;;;;;7.50;1.80;;;;;;;23.63;100.00;63325.19;5072115;28;20617;-77
2022/07/12 08:33:44;;;;;;;7.20;1.97;;;;;;;23.69;100.00;63336.91;5072685;28;20246;-77
2022/07/12 08:36:11;;;;;;;7.30;1.70;;;;;;;23.09;100.00;63271.84;5072355;28;20212;-77
2022/07/12 08:38:43;;;;;;;3.83;1.70;;;;;;;22.92;100.00;63253.41;5072232;28;20325;-76
2022/07/12 08:41:12;;;;;;;8.13;1.47;;;;;;;23.17;100.00;63281.06;5060612;28;20285;-77
2022/07/12 08:43:39;;;;;;;5.30;2.00;;;;;;;23.69;100.00;63339.50;5072318;28;20589;-76
2022/07/12 08:46:07;;;;;;;9.37;1.87;;;;;;;23.96;100.00;63363.59;5081303;28;20204;-77
2022/07/12 08:48:37;;;;;;;7.13;1.80;;;;;;;23.97;100.00;63364.69;5072432;28;20594;-77
2022/07/12 08:51:05;;;;;;;4.20;1.30;;;;;;;24.15;100.00;63386.84;5071382;28;20702;-77
2022/07/12 08:53:33;;;;;;;4.37;1.67;;;;;;;24.35;100.00;63408.00;5071894;28;20201;-76
2022/07/12 08:56:00;;;;;;;4.37;1.67;;;;;;;24.76;98.64;63451.97;5071984;28;20207;-75
2022/07/12 08:58:27;;;;;;;2.63;1.67;;;;;;;24.67;94.66;63442.72;5069339;28;20247;-75
2022/07/12 09:00:54;;;;;;;9.20;1.93;;;;;;;24.46;97.88;63414.19;5034810;28;20213;-76
2022/07/12 09:03:22;;;;;;;4.03;1.50;;;;;;;24.12;100.00;63380.97;5071700;28;20643;-76
2022/07/12 09:05:52;;;;;;;4.40;1.60;;;;;;;23.79;100.00;63347.75;5071746;28;20212;-77
2022/07/12 09:08:25;;;;;;;5.57;1.63;;;;;;;23.31;100.00;63295.69;5071619;28;20207;-77
2022/07/12 09:10:56;;;;;;;5.10;1.90;;;;;;;23.69;100.00;63336.38;5071368;28;20741;-76
2022/07/12 09:13:52;;;;;;;8.90;1.70;;;;;;;23.97;100.00;63364.13;5071409;28;20200;-77
2022/07/12 09:16:21;;;;;;;4.33;1.83;;;;;;;24.25;100.00;63397.69;5071942;28;20667;-76
2022/07/12 09:18:49;;;;;;;3.03;1.40;;;;;;;23.97;100.00;63364.69;5071320;28;20589;-78
2022/07/12 09:21:28;;;;;;;5.10;1.63;;;;;;;23.74;100.00;63336.59;5071830;28;20320;-75
2022/07/12 09:23:56;;;;;;;5.70;1.60;;;;;;;24.43;100.00;63416.16;5059647;28;20205;-76
2022/07/12 09:26:24;;;;;;;4.60;1.43;;;;;;;24.12;100.00;63380.97;5071575;28;20617;-77
2022/07/12 09:28:52;;;;;;;2.20;1.30;;;;;;;24.27;97.68;63399.84;5071512;28;20196;-76
2022/07/12 09:31:20;;;;;;;5.87;1.50;;;;;;;24.28;88.55;63400.94;5070971;28;20228;-77
2022/07/12 09:36:58;;;;;;;5.33;1.60;;;;;;;24.88;87.94;63470.22;5066950;28;20347;-76
2022/07/12 09:39:26;;;;;;;4.03;1.53;;;;;;;24.82;87.95;63459.03;5071055;28;20686;-77
2022/07/12 09:41:56;;;;;;;3.90;1.53;;;;;;;25.05;88.69;63480.88;5071005;28;20655;-77
2022/07/12 09:44:25;;;;;;;2.63;1.20;;;;;;;25.09;89.38;63487.81;5071218;28;20204;-77
2022/07/12 09:46:52;;;;;;;8.83;1.83;;;;;;;24.85;92.29;63461.75;5070892;28;20243;-77
2022/07/12 09:49:20;;;;;;;5.53;1.47;;;;;;;25.25;90.40;63505.19;5071136;28;20690;-78
2022/07/12 09:51:48;;;;;;;5.67;1.50;;;;;;;25.71;79.30;63549.97;5070514;28;20224;-77
2022/07/12 09:54:25;;;;;;;6.03;2.27;;;;;;;25.27;75.05;63507.38;5070927;28;20247;-77
2022/07/12 09:56:55;;;;;;;2.67;1.57;;;;;;;25.12;78.39;63486.41;5070889;28;20233;-77
2022/07/12 09:59:25;;;;;;;3.93;1.50;;;;;;;24.52;71.82;63425.91;5070914;28;20245;-77
2022/07/12 10:01:55;;;;;;;2.80;1.07;;;;;;;24.97;69.65;63477.38;5080469;28;20210;-77
2022/07/12 10:04:24;;;;;;;1.63;1.07;;;;;;;24.73;66.83;63449.25;5058697;28;20198;-78
2022/07/12 10:06:52;;;;;;;8.70;1.30;;;;;;;24.29;70.21;63401.47;5070560;28;20661;-76
2022/07/12 10:09:21;;;;;;;4.67;1.33;;;;;;;24.29;73.55;63402.03;5070545;28;20196;-77
2022/07/12 10:11:49;;;;;;;1.37;0.90;;;;;;;23.88;76.18;63354.38;5071070;28;20236;-77
2022/07/12 10:14:18;;;;;;;3.60;1.30;;;;;;;23.68;73.97;63335.28;5070581;28;20221;-76
2022/07/12 10:16:46;;;;;;;6.53;1.60;;;;;;;24.13;79.18;63384.66;5071037;28;20586;-76
2022/07/12 10:19:23;;;;;;;5.63;1.40;;;;;;;24.59;85.63;63434.03;5070811;28;20668;-76
2022/07/12 10:21:51;;;;;;;2.63;1.20;;;;;;;24.75;77.63;63450.91;5070960;28;20262;-78
2022/07/12 10:24:47;;;;;;;1.53;1.30;;;;;;;24.61;65.25;63431.00;5070581;28;20627;-76
2022/07/12 10:27:37;;;;;;;12.73;1.63;;;;;;;24.54;70.03;63428.06;5078586;28;20792;-77
2022/07/12 10:30:21;;;;;;;4.10;1.20;;;;;;;24.93;65.65;63473.06;5070679;28;20671;-77
2022/07/12 10:32:49;;;;;;;3.63;1.20;;;;;;;25.12;65.78;63491.59;5063234;28;20244;-78
2022/07/12 10:35:19;;;;;;;2.40;1.10;;;;;;;24.83;69.44;63459.59;5070813;28;20196;-77
2022/07/12 10:38:16;;;;;;;3.00;1.20;;;;;;;24.75;65.42;63448.28;5070792;28;20205;-76
2022/07/12 10:40:46;;;;;;;1.10;1.00;;;;;;;24.98;64.34;63476.41;5070594;28;20224;-76
2022/07/12 10:43:16;;;;;;;1.73;1.23;;;;;;;24.71;63.66;63443.94;5070436;28;20207;-76
2022/07/12 10:45:43;;;;;;;4.90;1.50;;;;;;;24.36;67.07;63408.53;5070319;28;20267;-78
2022/07/12 10:48:21;;;;;;;2.40;1.20;;;;;;;24.39;73.54;63409.19;5070706;28;20585;-78
2022/07/12 10:50:57;;;;;;;2.77;1.30;;;;;;;24.67;68.81;63444.81;5057038;28;20251;-75
2022/07/12 10:53:30;;;;;;;5.33;1.20;;;;;;;25.09;70.97;63487.81;5070514;28;20204;-77
2022/07/12 10:56:22;;;;;;;2.67;1.30;;;;;;;24.17;66.86;63389.00;5070961;28;20205;-77
2022/07/12 10:58:52;;;;;;;2.57;1.10;;;;;;;23.73;71.53;63343.84;5070397;28;20205;-77
2022/07/12 11:01:20;;;;;;;6.73;1.57;;;;;;;24.12;71.77;63383.59;5070347;28;20208;-75
2022/07/12 11:03:51;;;;;;;4.20;1.37;;;;;;;24.22;71.81;63394.44;5070521;28;20213;-76
2022/07/12 11:06:19;;;;;;;5.90;1.70;;;;;;;24.11;75.92;63382.50;5070474;28;20205;-76
2022/07/12 11:08:59;;;;;;;6.27;1.23;;;;;;;24.17;76.82;63389.00;5070709;28;20205;-77
2022/07/12 11:11:29;;;;;;;3.93;1.53;;;;;;;23.99;83.54;63366.31;5056467;28;20216;-76
2022/07/12 11:14:01;;;;;;;2.30;1.30;;;;;;;25.43;78.80;63524.22;5059667;28;20229;-77
2022/07/12 11:16:30;;;;;;;1.57;1.33;;;;;;;25.57;68.60;63539.97;5059998;28;20200;-77
2022/07/12 11:18:57;;;;;;;1.10;1.00;;;;;;;25.12;68.82;63485.84;5074019;28;20199;-76
2022/07/12 11:21:24;;;;;;;3.47;1.17;;;;;;;25.17;66.33;63496.50;5073475;28;20209;-77
2022/07/12 11:23:52;;;;;;;1.70;1.20;;;;;;;25.34;66.16;63517.56;5062099;28;20217;-77
2022/07/12 11:26:19;;;;;;;1.60;1.20;;;;;;;25.42;67.50;63523.13;5072253;28;20233;-77
2022/07/12 11:28:49;;;;;;;3.33;1.40;;;;;;;25.60;76.51;63540.59;5073647;28;20200;-76
2022/07/12 11:31:17;;;;;;;3.00;1.40;;;;;;;25.68;72.60;63551.38;5059823;28;20233;-78
2022/07/12 11:33:50;;;;;;;2.60;1.33;;;;;;;25.60;71.87;63540.06;5073540;28;20213;-76
2022/07/12 11:36:18;;;;;;;1.40;1.20;;;;;;;26.28;73.53;63616.06;5073198;28;20984;-77